Fielding, Utah
Current Conditions -  °F | °C
As of 9:51 PM on Wednesday 26 Nov 2014 (Local Time) from KLGU Reporting Station
Clear Clear  
Wind Chill: 26°   Ceiling: Unl
Heat Index: 32°   Visibility: 10mi
Dew Point: 27°   Wind: 6mph
Humidity: 82%   Direction: 70°ENE
Pressure: 30.34"   Gusts: NA
Location:  41.81°N, 112.12°W
Report Text: KLGU 270451Z AUTO 07005KT 10SM CLR 00/M03 A3034 RMK AO2 SLP276 T00001028
Loading
Personal Weather Stations






























Interactive Weather Map New forecast layout! Learn more

10-Day Weather Forecast

Advertisements
Track Severe Weather on mobile